createdAt,value
2023-05-24T00:00:10.676Z,100140.95
2023-05-24T00:05:02.317Z,100145.76
2023-05-24T00:09:55.280Z,100144.25
2023-05-24T00:14:46.752Z,100143.39
2023-05-24T00:19:38.736Z,100137.13
2023-05-24T00:24:33.121Z,100132.79
2023-05-24T00:29:24.641Z,100126.33
2023-05-24T00:34:18.137Z,100127.23
2023-05-24T00:39:12.182Z,100123.94
2023-05-24T00:44:03.689Z,100122.20
2023-05-24T00:48:55.925Z,100122.42
2023-05-24T00:53:48.978Z,100116.84
2023-05-24T00:58:44.022Z,100114.25
2023-05-24T01:03:35.875Z,100113.08
2023-05-24T01:08:54.304Z,100109.42
2023-05-24T01:14:07.157Z,100104.71
2023-05-24T01:19:05.667Z,100104.03
2023-05-24T01:24:10.599Z,100105.45
2023-05-24T01:29:03.339Z,100107.35
2023-05-24T01:33:55.216Z,100113.47
2023-05-24T01:38:47.059Z,100117.34
2023-05-24T01:43:43.453Z,100117.89
2023-05-24T01:48:59.997Z,100117.19
2023-05-24T01:53:53.313Z,100120.90
2023-05-24T01:58:47.503Z,100122.69
2023-05-24T02:03:40.065Z,100128.13
2023-05-24T02:08:31.605Z,100129.73
2023-05-24T02:13:23.121Z,100129.47
2023-05-24T02:18:14.669Z,100133.36
2023-05-24T02:23:06.920Z,100130.29
2023-05-24T02:28:01.559Z,100136.45
2023-05-24T02:32:53.296Z,100139.64
2023-05-24T02:37:45.076Z,100138.30
2023-05-24T02:42:36.784Z,100137.45
2023-05-24T02:47:28.368Z,100138.19
2023-05-24T02:52:22.340Z,100134.92
2023-05-24T02:57:32.276Z,100137.77
2023-05-24T03:02:23.841Z,100138.48
2023-05-24T03:07:15.351Z,100137.79
2023-05-24T03:12:07.314Z,100141.98
2023-05-24T03:16:58.911Z,100139.55
2023-05-24T03:21:50.817Z,100146.84
2023-05-24T03:26:42.394Z,100149.08
2023-05-24T03:31:34.188Z,100153.59
2023-05-24T03:36:27.873Z,100156.32
2023-05-24T03:41:19.957Z,100152.42
2023-05-24T03:46:11.654Z,100157.91
2023-05-24T03:51:03.705Z,100156.27
2023-05-24T03:55:55.239Z,100161.41
2023-05-24T04:00:47.334Z,100163.10
2023-05-24T04:05:38.869Z,100162.52
2023-05-24T04:10:30.312Z,100164.33
2023-05-24T04:15:22.526Z,100167.17
2023-05-24T04:20:14.676Z,100167.23
2023-05-24T04:25:09.221Z,100169.95
2023-05-24T04:30:00.792Z,100174.72
2023-05-24T04:34:52.312Z,100177.72
2023-05-24T04:39:44.664Z,100184.06
2023-05-24T04:44:36.280Z,100192.13
2023-05-24T04:49:29.330Z,100197.23
2023-05-24T04:54:31.114Z,100200.23
2023-05-24T04:59:27.295Z,100199.52
2023-05-24T05:04:22.459Z,100203.13
2023-05-24T05:09:22.073Z,100202.52
2023-05-24T05:14:14.006Z,100204.79
2023-05-24T05:19:05.517Z,100207.34
2023-05-24T05:23:59.776Z,100215.14
2023-05-24T05:28:52.343Z,100218.38
2023-05-24T05:33:43.984Z,100212.29
2023-05-24T05:38:35.427Z,100219.30
2023-05-24T05:43:28.468Z,100218.82
2023-05-24T05:48:21.568Z,100224.08
2023-05-24T05:53:13.275Z,100228.05
2023-05-24T05:58:04.974Z,100235.13
2023-05-24T06:02:56.534Z,100237.52
2023-05-24T06:07:48.084Z,100237.06
2023-05-24T06:12:43.106Z,100247.63
2023-05-24T06:17:35.547Z,100251.18
2023-05-24T06:22:29.128Z,100257.17
2023-05-24T06:27:20.831Z,100264.23
2023-05-24T06:32:12.384Z,100265.64
2023-05-24T06:37:05.671Z,100265.95
2023-05-24T06:41:57.506Z,100271.80
2023-05-24T06:46:49.284Z,100275.04
2023-05-24T06:51:40.931Z,100277.37
2023-05-24T06:56:32.775Z,100278.31
2023-05-24T07:01:24.326Z,100282.73
2023-05-24T07:06:16.682Z,100285.20
2023-05-24T07:11:09.346Z,100287.28
2023-05-24T07:16:06.180Z,100292.64
2023-05-24T07:20:57.750Z,100301.08
2023-05-24T07:25:49.256Z,100302.50
2023-05-24T07:30:44.023Z,100309.73
2023-05-24T07:35:45.047Z,100318.18
2023-05-24T07:40:40.982Z,100312.96
2023-05-24T07:45:36.496Z,100315.25
2023-05-24T07:50:32.883Z,100325.91
2023-05-24T07:55:31.592Z,100326.52
2023-05-24T08:00:24.599Z,100333.57
2023-05-24T08:05:20.656Z,100339.77
2023-05-24T08:10:12.962Z,100339.63
2023-05-24T08:15:08.363Z,100344.08
2023-05-24T08:20:25.980Z,100342.27
2023-05-24T08:25:15.903Z,100345.45
2023-05-24T08:30:08.436Z,100338.80
2023-05-24T08:35:14.816Z,100347.95
2023-05-24T08:40:13.872Z,100347.70
2023-05-24T08:45:12.872Z,100341.55
2023-05-24T08:50:14.843Z,100344.77
2023-05-24T08:55:10.694Z,100349.34
2023-05-24T09:00:02.277Z,100350.59
2023-05-24T09:04:55.166Z,100352.08
2023-05-24T09:10:22.821Z,100358.80
2023-05-24T09:16:08.466Z,100352.11
2023-05-24T09:22:42.427Z,100353.90
2023-05-24T09:28:50.383Z,100356.25
2023-05-24T09:33:48.388Z,100355.34
2023-05-24T09:38:53.506Z,100363.65
2023-05-24T09:43:51.463Z,100362.11
2023-05-24T09:49:49.288Z,100366.05
2023-05-24T10:01:00.672Z,100377.84
2023-05-24T10:05:53.739Z,100379.59
2023-05-24T10:10:45.895Z,100386.84
2023-05-24T10:15:38.257Z,100385.38
2023-05-24T10:20:30.331Z,100379.83
2023-05-24T10:25:27.922Z,100379.17
2023-05-24T10:36:53.441Z,100390.59
2023-05-24T10:42:25.572Z,100384.36
2023-05-24T10:48:06.686Z,100384.95
2023-05-24T10:54:21.363Z,100387.77
2023-05-24T11:58:14.805Z,100411.34
2023-05-24T12:04:04.677Z,100410.73
2023-05-24T12:55:02.040Z,100432.35
2023-05-24T13:07:38.454Z,100450.34
2023-05-24T13:12:30.875Z,100450.09
2023-05-24T13:17:26.614Z,100452.35
2023-05-24T13:22:20.693Z,100451.70
2023-05-24T13:27:12.940Z,100450.54
2023-05-24T13:32:04.661Z,100445.27
2023-05-24T13:36:56.871Z,100444.64
2023-05-24T13:41:49.992Z,100439.70
2023-05-24T13:46:43.111Z,100441.89
2023-05-24T13:51:37.969Z,100451.42
2023-05-24T13:56:35.015Z,100453.39
2023-05-24T14:01:28.137Z,100462.71
2023-05-24T14:06:25.100Z,100479.58
2023-05-24T14:11:18.903Z,100474.30
2023-05-24T14:16:16.748Z,100478.11
2023-05-24T14:21:11.164Z,100484.09
2023-05-24T14:26:04.780Z,100466.34
2023-05-24T14:30:58.660Z,100451.98
2023-05-24T14:35:51.284Z,100441.67
2023-05-24T14:40:46.681Z,100444.83
2023-05-24T14:45:43.006Z,100451.35
2023-05-24T14:50:47.207Z,100454.63
2023-05-24T14:55:44.691Z,100457.92
2023-05-24T15:00:40.731Z,100460.02
2023-05-24T15:05:33.237Z,100459.89
2023-05-24T15:10:28.517Z,100460.92
2023-05-24T15:15:22.307Z,100460.91
2023-05-24T15:20:21.423Z,100474.64
2023-05-24T15:25:17.515Z,100479.32
2023-05-24T15:30:11.464Z,100478.83
2023-05-24T15:35:09.351Z,100484.30
2023-05-24T15:40:06.216Z,100486.05
2023-05-24T15:44:58.862Z,100491.18
2023-05-24T15:49:54.262Z,100502.30
2023-05-24T15:54:56.757Z,100508.14
2023-05-24T15:59:50.670Z,100516.18
2023-05-24T16:04:43.243Z,100526.70
2023-05-24T16:09:37.052Z,100538.51
2023-05-24T16:14:42.079Z,100539.19
2023-05-24T16:19:57.898Z,100540.98
2023-05-24T16:24:51.571Z,100543.92
2023-05-24T16:30:07.931Z,100553.82
2023-05-24T16:35:01.535Z,100551.68
2023-05-24T16:39:53.112Z,100554.81
2023-05-24T16:44:47.273Z,100555.69
2023-05-24T16:49:38.762Z,100560.71
2023-05-24T16:54:32.628Z,100566.73
2023-05-24T16:59:32.581Z,100573.13
2023-05-24T17:04:27.036Z,100574.95
2023-05-24T17:09:19.608Z,100577.38
2023-05-24T17:14:11.346Z,100579.95
2023-05-24T17:19:03.112Z,100574.84
2023-05-24T17:23:54.990Z,100576.48
2023-05-24T17:28:59.576Z,100581.84
2023-05-24T17:33:51.729Z,100583.02
2023-05-24T17:38:46.387Z,100585.07
2023-05-24T17:43:41.346Z,100591.95
2023-05-24T17:48:34.522Z,100591.03
2023-05-24T17:53:31.566Z,100597.15
2023-05-24T17:58:24.059Z,100607.16
2023-05-24T18:03:19.394Z,100609.18
2023-05-24T18:08:10.901Z,100613.00
2023-05-24T18:13:19.912Z,100619.66
2023-05-24T18:18:12.863Z,100625.27
2023-05-24T18:23:26.552Z,100642.73
2023-05-24T18:28:20.748Z,100649.52
2023-05-24T18:33:15.725Z,100654.27
2023-05-24T18:38:10.034Z,100665.02
2023-05-24T18:43:02.265Z,100674.16
2023-05-24T18:47:53.908Z,100683.05
2023-05-24T18:52:53.674Z,100691.98
2023-05-24T18:57:45.359Z,100704.59
2023-05-24T19:02:40.826Z,100706.80
2023-05-24T19:07:35.449Z,100705.67
2023-05-24T19:12:26.919Z,100708.48
2023-05-24T19:17:18.465Z,100713.67
2023-05-24T19:22:12.410Z,100717.31
2023-05-24T19:27:07.866Z,100716.59
2023-05-24T19:31:59.415Z,100720.23
2023-05-24T19:36:51.010Z,100724.91
2023-05-24T19:41:44.976Z,100728.33
2023-05-24T19:46:36.853Z,100735.77
2023-05-24T19:51:38.949Z,100744.48
2023-05-24T19:56:31.604Z,100749.13
2023-05-24T20:01:27.111Z,100745.11
2023-05-24T20:06:18.623Z,100748.36
2023-05-24T20:11:11.470Z,100747.86
2023-05-24T20:16:03.802Z,100747.05
2023-05-24T20:21:00.949Z,100751.13
2023-05-24T20:25:52.390Z,100749.60
2023-05-24T20:30:45.174Z,100755.61
2023-05-24T20:35:36.678Z,100760.59
2023-05-24T20:40:30.346Z,100764.31
2023-05-24T20:45:27.173Z,100762.11
2023-05-24T20:50:18.792Z,100765.02
2023-05-24T20:55:10.975Z,100769.08
2023-05-24T21:00:02.714Z,100775.42
2023-05-24T21:04:55.250Z,100777.23
2023-05-24T21:09:54.896Z,100777.64
2023-05-24T21:14:46.368Z,100782.95
2023-05-24T21:19:38.067Z,100782.44
2023-05-24T21:25:02.132Z,100785.98
2023-05-24T21:29:53.703Z,100787.58
2023-05-24T21:34:46.547Z,100797.20
2023-05-24T21:39:38.041Z,100793.54
2023-05-24T21:44:29.631Z,100793.22
2023-05-24T21:49:21.237Z,100794.11
2023-05-24T21:54:12.782Z,100792.55
2023-05-24T21:59:05.682Z,100790.82
2023-05-24T22:03:57.394Z,100792.95
2023-05-24T22:08:49.028Z,100799.27
2023-05-24T22:14:07.142Z,100805.95
2023-05-24T22:19:01.740Z,100811.56
2023-05-24T22:23:53.245Z,100815.97
2023-05-24T22:28:55.973Z,100813.71
2023-05-24T22:33:50.786Z,100814.05
2023-05-24T22:38:44.754Z,100816.17
2023-05-24T22:43:39.237Z,100815.64
2023-05-24T22:48:33.183Z,100817.23
2023-05-24T22:53:25.467Z,100819.34
2023-05-24T22:58:20.916Z,100822.85
2023-05-24T23:03:12.502Z,100820.77
2023-05-24T23:08:12.602Z,100825.99
2023-05-24T23:13:04.140Z,100827.75
2023-05-24T23:18:00.236Z,100821.12
2023-05-24T23:22:52.414Z,100825.99
2023-05-24T23:27:48.211Z,100826.70
2023-05-24T23:32:44.014Z,100825.30
2023-05-24T23:37:37.761Z,100831.20
2023-05-24T23:42:35.760Z,100833.46
2023-05-24T23:47:27.353Z,100838.69
2023-05-24T23:52:19.829Z,100840.60
2023-05-24T23:57:11.432Z,100841.10
